Time;durP1;ratioP1;P1;durP2;ratioP2;P2;SDS_P1;SDS_P2;PMS_P1;PMS_P2;Temp;Humidity;BMP_temperature;BMP_pressure;BME280_temperature;BME280_humidity;BME280_pressure;Samples;Min_cycle;Max_cycle;Signal;HPM_P1;HPM_P2
2021/01/30 00:01:43;;;;;;;48.08;31.70;;;0.30;97.20;;;;;;4999044;28;20526;-78
2021/01/30 00:04:12;;;;;;;50.92;32.58;;;-0.50;97.00;;;;;;4993551;28;20650;-77
2021/01/30 00:06:46;;;;;;;45.15;32.15;;;-0.50;97.10;;;;;;4999573;28;20252;-76
2021/01/30 00:09:13;;;;;;;47.08;30.85;;;0.10;97.20;;;;;;4993382;28;20642;-77
2021/01/30 00:11:39;;;;;;;47.42;31.88;;;0.50;97.20;;;;;;4994248;28;20213;-76
2021/01/30 00:14:06;;;;;;;54.53;35.47;;;-0.50;96.90;;;;;;4998188;28;20684;-75
2021/01/30 00:16:33;;;;;;;43.92;32.97;;;0.40;97.40;;;;;;4999701;28;20237;-76
2021/01/30 00:19:00;;;;;;;61.35;37.75;;;-0.50;97.00;;;;;;4994055;28;20628;-76
2021/01/30 00:21:26;;;;;;;49.55;33.45;;;-0.60;97.10;;;;;;4999242;28;20210;-76
2021/01/30 00:23:53;;;;;;;53.15;36.47;;;-0.50;97.10;;;;;;4999015;28;20239;-75
2021/01/30 00:26:19;;;;;;;54.83;33.70;;;-0.40;97.10;;;;;;4998306;28;20217;-75
2021/01/30 00:28:46;;;;;;;56.42;37.00;;;-0.40;97.20;;;;;;4999282;28;20220;-75
2021/01/30 00:31:25;;;;;;;51.22;31.13;;;-0.40;97.10;;;;;;5002397;28;20268;-75
2021/01/30 00:33:51;;;;;;;48.30;30.77;;;-0.40;96.90;;;;;;4985759;28;20198;-76
2021/01/30 00:36:18;;;;;;;54.83;37.30;;;-0.50;96.90;;;;;;4989687;28;20206;-76
2021/01/30 00:38:44;;;;;;;53.70;35.10;;;-0.50;97.10;;;;;;4992483;28;20455;-76
2021/01/30 00:41:11;;;;;;;54.35;33.47;;;-0.50;97.20;;;;;;4998064;28;20232;-76
2021/01/30 00:43:38;;;;;;;60.50;37.15;;;-0.50;97.30;;;;;;4997924;28;20500;-75
2021/01/30 00:46:04;;;;;;;54.35;34.53;;;-0.40;97.20;;;;;;4993832;28;20240;-74
2021/01/30 00:48:31;;;;;;;54.53;33.58;;;-0.40;97.20;;;;;;4994482;28;20242;-74
2021/01/30 00:50:58;;;;;;;50.75;32.40;;;-0.40;97.00;;;;;;4998689;28;20264;-76
2021/01/30 00:53:24;;;;;;;60.20;31.63;;;-0.50;97.00;;;;;;4989794;28;20538;-77
2021/01/30 00:55:51;;;;;;;42.92;29.30;;;1.70;97.70;;;;;;4979055;28;20214;-76
2021/01/30 00:58:17;;;;;;;52.97;34.40;;;0.80;97.20;;;;;;4993280;28;20205;-75
2021/01/30 01:00:44;;;;;;;64.55;34.05;;;-0.40;97.10;;;;;;4985503;28;20214;-76
2021/01/30 01:03:12;;;;;;;52.28;35.15;;;0.20;97.30;;;;;;4979308;28;20210;-77
2021/01/30 01:05:39;;;;;;;60.95;35.88;;;0.10;97.20;;;;;;4986495;28;20273;-76
2021/01/30 01:08:06;;;;;;;47.78;32.42;;;-0.50;97.10;;;;;;4997971;28;20217;-75
2021/01/30 01:10:32;;;;;;;62.13;38.88;;;-0.40;97.10;;;;;;4998447;28;20216;-76
2021/01/30 01:13:00;;;;;;;54.20;37.40;;;-0.20;97.10;;;;;;4984708;28;20273;-76
2021/01/30 01:15:27;;;;;;;65.00;37.25;;;-0.50;97.30;;;;;;4998623;28;20236;-74
2021/01/30 01:17:53;;;;;;;62.33;34.15;;;0.20;97.60;;;;;;4998599;28;20209;-76
2021/01/30 01:20:22;;;;;;;56.08;37.30;;;-0.10;97.50;;;;;;4995557;28;20797;-75
2021/01/30 01:22:49;;;;;;;59.50;33.88;;;-0.60;97.40;;;;;;4986996;28;20210;-76
2021/01/30 01:25:20;;;;;;;50.28;32.15;;;-0.50;97.30;;;;;;4996001;28;20559;-76
2021/01/30 01:27:47;;;;;;;61.25;35.53;;;-0.50;97.30;;;;;;4990570;28;20211;-76
2021/01/30 01:30:15;;;;;;;58.95;36.85;;;1.30;97.70;;;;;;4991628;28;20208;-77
2021/01/30 01:32:42;;;;;;;65.22;36.15;;;-0.60;97.30;;;;;;4984873;28;20530;-77
2021/01/30 01:35:16;;;;;;;47.45;32.55;;;-0.60;97.30;;;;;;4985683;28;20214;-76
2021/01/30 01:37:43;;;;;;;49.28;33.38;;;-0.60;97.30;;;;;;4983849;28;20776;-78
2021/01/30 01:40:14;;;;;;;55.22;35.17;;;1.20;97.80;;;;;;4987186;28;20214;-77
2021/01/30 01:42:41;;;;;;;49.53;30.05;;;-0.60;97.30;;;;;;4979031;28;20214;-77
2021/01/30 01:45:08;;;;;;;53.20;30.70;;;-0.50;97.40;;;;;;4978210;28;20245;-77
2021/01/30 01:47:39;;;;;;;55.92;35.28;;;-0.50;97.10;;;;;;4993936;28;20232;-76
2021/01/30 01:50:13;;;;;;;51.67;28.63;;;-0.50;97.10;;;;;;4984725;28;20397;-76
2021/01/30 01:52:41;;;;;;;45.85;27.25;;;-0.40;97.00;;;;;;4978147;28;20269;-76
2021/01/30 01:55:19;;;;;;;36.25;25.10;;;0.30;97.20;;;;;;4984483;28;20209;-76
2021/01/30 01:57:54;;;;;;;45.72;30.70;;;-0.40;96.90;;;;;;5005440;28;20216;-76
2021/01/30 02:00:23;;;;;;;47.30;28.60;;;0.20;97.00;;;;;;4996343;28;20472;-76
2021/01/30 02:02:52;;;;;;;36.70;19.92;;;-0.50;97.10;;;;;;4983842;28;20277;-76
2021/01/30 02:05:30;;;;;;;39.60;24.60;;;-0.50;96.90;;;;;;4995113;28;20411;-76
2021/01/30 02:08:03;;;;;;;42.10;22.75;;;-0.70;97.00;;;;;;4989895;28;20213;-75
2021/01/30 02:10:37;;;;;;;40.67;26.58;;;0.70;97.40;;;;;;4988628;28;20516;-76
2021/01/30 02:13:10;;;;;;;42.47;26.98;;;0.30;97.20;;;;;;4995622;28;20214;-76
2021/01/30 02:15:38;;;;;;;45.53;26.60;;;-0.60;97.00;;;;;;4997539;28;20245;-76
2021/01/30 02:18:17;;;;;;;50.70;30.75;;;1.30;97.50;;;;;;4983525;28;20249;-76
2021/01/30 02:21:17;;;;;;;44.70;25.75;;;-0.50;97.00;;;;;;4990257;28;20217;-75
2021/01/30 02:24:10;;;;;;;51.10;28.55;;;-0.50;96.90;;;;;;4996469;28;20202;-77
2021/01/30 02:27:14;;;;;;;50.47;27.58;;;-0.60;96.90;;;;;;4984102;28;20206;-76
2021/01/30 02:30:18;;;;;;;50.17;30.88;;;-0.50;96.90;;;;;;4989337;28;20209;-76
2021/01/30 02:33:12;;;;;;;54.67;33.13;;;-0.60;97.20;;;;;;4989731;28;20218;-77
2021/01/30 02:35:57;;;;;;;61.80;36.30;;;-0.70;97.50;;;;;;4994558;28;20209;-75
2021/01/30 02:38:27;;;;;;;47.80;30.70;;;-0.60;97.60;;;;;;4994058;28;20205;-75
2021/01/30 02:41:03;;;;;;;49.45;32.40;;;-0.60;97.50;;;;;;4995740;28;20230;-75
2021/01/30 02:43:37;;;;;;;42.67;23.83;;;0.80;97.80;;;;;;4983982;28;20520;-75
2021/01/30 02:46:08;;;;;;;51.08;32.95;;;-0.60;97.10;;;;;;4990846;28;20233;-74
2021/01/30 02:48:45;;;;;;;43.88;29.20;;;-0.60;97.30;;;;;;4999689;28;20209;-76
2021/01/30 02:51:21;;;;;;;48.97;27.67;;;-0.60;97.20;;;;;;4994176;28;20202;-76
2021/01/30 02:53:52;;;;;;;61.33;34.92;;;-0.30;97.50;;;;;;4995540;28;20205;-75
2021/01/30 02:56:20;;;;;;;43.53;27.27;;;0.00;97.60;;;;;;4996589;28;20281;-76
2021/01/30 02:59:01;;;;;;;53.78;34.65;;;-0.50;97.20;;;;;;4996272;28;20213;-76
2021/01/30 03:01:29;;;;;;;55.50;33.90;;;-0.50;96.90;;;;;;4984873;28;20469;-76
2021/01/30 03:03:58;;;;;;;52.35;35.25;;;-2.60;96.50;;;;;;4988854;28;20249;-75
2021/01/30 03:06:55;;;;;;;58.88;33.88;;;1.20;97.60;;;;;;4996513;28;20216;-74
2021/01/30 03:09:36;;;;;;;63.47;40.72;;;-0.60;97.00;;;;;;4997588;28;20442;-75
2021/01/30 03:12:29;;;;;;;71.30;42.13;;;-0.70;97.10;;;;;;4995196;28;20210;-76
2021/01/30 03:15:02;;;;;;;72.68;39.97;;;-0.60;97.30;;;;;;4996546;28;20255;-77
2021/01/30 03:17:31;;;;;;;68.50;39.45;;;-0.60;97.50;;;;;;5000337;28;20216;-74
2021/01/30 03:20:00;;;;;;;63.53;40.30;;;-0.10;97.30;;;;;;4997269;28;20214;-73
2021/01/30 03:22:30;;;;;;;77.47;43.60;;;-0.60;97.10;;;;;;4999967;28;20221;-73
2021/01/30 03:24:57;;;;;;;79.20;43.13;;;-0.50;97.20;;;;;;4986614;28;20230;-73
2021/01/30 03:27:30;;;;;;;64.38;40.30;;;-0.60;97.40;;;;;;5000156;28;20209;-72
2021/01/30 03:29:58;;;;;;;94.88;50.85;;;-0.30;97.40;;;;;;4999712;28;20202;-74
2021/01/30 03:32:27;;;;;;;88.50;48.10;;;-0.60;97.50;;;;;;4986513;28;20220;-74
2021/01/30 03:34:56;;;;;;;78.97;47.08;;;-0.60;97.40;;;;;;4988321;28;20245;-74
2021/01/30 03:37:23;;;;;;;77.15;45.88;;;-0.60;97.30;;;;;;4980504;28;20747;-74
2021/01/30 03:39:49;;;;;;;84.88;48.08;;;-0.60;97.20;;;;;;4980893;28;20214;-71
2021/01/30 03:42:16;;;;;;;91.75;54.58;;;-0.30;97.70;;;;;;4983646;28;20212;-72
2021/01/30 03:44:43;;;;;;;91.70;54.30;;;-0.70;97.00;;;;;;4989459;28;20572;-74
2021/01/30 03:47:09;;;;;;;70.50;42.20;;;-0.70;97.10;;;;;;4981816;28;20210;-74
2021/01/30 03:49:36;;;;;;;81.10;50.05;;;-0.70;97.10;;;;;;4999443;28;20231;-75
2021/01/30 03:52:03;;;;;;;95.90;52.10;;;-0.70;97.00;;;;;;4986528;28;20222;-74
2021/01/30 03:54:30;;;;;;;96.75;53.90;;;-0.80;97.20;;;;;;4980114;28;20257;-73
2021/01/30 03:56:56;;;;;;;103.70;54.45;;;-0.80;97.30;;;;;;4980587;28;20210;-74
2021/01/30 03:59:23;;;;;;;100.32;57.20;;;-0.70;97.40;;;;;;4996919;28;20423;-72
2021/01/30 04:01:49;;;;;;;84.55;52.90;;;-0.80;97.30;;;;;;4983856;28;20519;-72
2021/01/30 04:04:16;;;;;;;101.43;55.35;;;0.10;97.60;;;;;;4996395;28;20209;-74
2021/01/30 04:06:48;;;;;;;88.13;47.88;;;-0.80;97.30;;;;;;4998815;28;20213;-74
2021/01/30 04:09:16;;;;;;;86.90;51.78;;;0.00;97.50;;;;;;5000573;28;20240;-72
2021/01/30 04:11:43;;;;;;;100.40;53.47;;;-0.90;97.10;;;;;;4991798;28;20211;-73
2021/01/30 04:14:10;;;;;;;82.05;48.85;;;-0.90;96.90;;;;;;4999916;28;20197;-73
2021/01/30 04:16:37;;;;;;;73.93;43.90;;;-0.10;97.30;;;;;;4999268;28;20210;-75
2021/01/30 04:19:04;;;;;;;76.60;44.47;;;0.40;97.40;;;;;;5000087;28;20206;-75
2021/01/30 04:21:31;;;;;;;80.18;44.65;;;-0.90;96.90;;;;;;4998900;28;20216;-72
2021/01/30 04:23:58;;;;;;;79.45;42.28;;;-0.90;97.10;;;;;;4998247;28;20201;-75
2021/01/30 04:26:25;;;;;;;85.88;51.45;;;0.50;97.40;;;;;;4998835;28;20243;-76
2021/01/30 04:28:52;;;;;;;86.85;46.17;;;-0.60;96.90;;;;;;4984808;28;20209;-74
2021/01/30 04:31:20;;;;;;;76.07;44.47;;;-0.80;97.30;;;;;;4999616;28;20213;-75
2021/01/30 04:33:49;;;;;;;81.47;49.72;;;-0.70;97.00;;;;;;4995140;28;20206;-74
2021/01/30 04:36:17;;;;;;;86.32;45.53;;;-0.70;96.70;;;;;;4989077;28;20224;-75
2021/01/30 04:38:44;;;;;;;87.05;48.15;;;-0.80;96.70;;;;;;4998348;28;20236;-75
2021/01/30 04:41:37;;;;;;;84.78;47.65;;;-0.30;96.90;;;;;;4998511;28;20206;-75
2021/01/30 04:44:27;;;;;;;64.78;43.35;;;-0.80;96.90;;;;;;4997959;28;20208;-75
2021/01/30 04:47:29;;;;;;;77.93;48.63;;;0.60;97.10;;;;;;5000983;28;20216;-75
2021/01/30 04:50:21;;;;;;;78.88;48.38;;;-0.50;97.10;;;;;;4995921;28;20281;-74
2021/01/30 04:53:05;;;;;;;75.95;44.35;;;-0.80;96.90;;;;;;4985874;28;20210;-76
2021/01/30 04:56:10;;;;;;;61.63;37.55;;;-0.90;96.70;;;;;;4997244;28;20226;-75
2021/01/30 04:58:55;;;;;;;55.50;34.90;;;-0.90;96.50;;;;;;5007551;28;20220;-74
2021/01/30 05:01:32;;;;;;;80.13;42.50;;;-1.00;96.70;;;;;;4984770;28;20214;-72
2021/01/30 05:04:08;;;;;;;69.65;43.08;;;-1.00;96.80;;;;;;5001639;28;20243;-73
2021/01/30 05:06:47;;;;;;;79.05;46.80;;;1.10;97.60;;;;;;4994791;28;20237;-73
2021/01/30 05:09:29;;;;;;;66.63;40.17;;;-1.00;97.20;;;;;;4995321;28;20229;-74
2021/01/30 05:12:36;;;;;;;78.07;46.85;;;-0.90;96.80;;;;;;4989972;28;20428;-73
2021/01/30 05:15:27;;;;;;;79.97;48.55;;;0.60;97.40;;;;;;4996074;28;20396;-74
2021/01/30 05:18:11;;;;;;;74.88;44.30;;;-1.00;97.10;;;;;;4985808;28;20209;-74
2021/01/30 05:20:46;;;;;;;64.43;41.92;;;-1.00;96.70;;;;;;4996628;28;20205;-74
2021/01/30 05:23:14;;;;;;;90.65;46.38;;;-1.00;96.90;;;;;;4997844;28;20209;-74
2021/01/30 05:25:43;;;;;;;83.80;44.95;;;-1.00;97.10;;;;;;4991852;28;20591;-73
2021/01/30 05:28:29;;;;;;;82.97;49.05;;;-1.00;97.20;;;;;;4991001;28;20231;-74
2021/01/30 05:31:14;;;;;;;82.75;49.40;;;-1.00;97.30;;;;;;4986220;28;20241;-73
2021/01/30 05:33:48;;;;;;;92.47;53.35;;;-1.00;97.30;;;;;;4994423;28;20260;-72
2021/01/30 05:36:39;;;;;;;68.70;41.08;;;-1.10;97.50;;;;;;4997724;28;20224;-71
2021/01/30 05:39:24;;;;;;;67.35;40.67;;;-1.10;97.50;;;;;;4984017;28;20401;-73
2021/01/30 05:41:53;;;;;;;60.50;37.90;;;-1.10;97.50;;;;;;4984697;28;20217;-72
2021/01/30 05:44:40;;;;;;;55.75;33.80;;;-1.10;97.30;;;;;;4978496;28;20206;-73
2021/01/30 05:47:13;;;;;;;55.20;32.08;;;-1.20;97.20;;;;;;4992128;28;20209;-72
2021/01/30 05:49:52;;;;;;;48.85;29.00;;;-1.20;97.40;;;;;;4982637;28;20209;-73
2021/01/30 05:52:23;;;;;;;43.55;25.35;;;-0.40;97.60;;;;;;4992532;28;20211;-73
2021/01/30 05:54:50;;;;;;;66.07;32.60;;;-0.90;97.40;;;;;;4979001;28;20253;-72
2021/01/30 05:57:18;;;;;;;41.67;25.88;;;-1.30;97.30;;;;;;4993203;28;20214;-73
2021/01/30 05:59:55;;;;;;;37.03;25.00;;;-1.30;97.20;;;;;;4994603;28;20198;-72
2021/01/30 06:02:30;;;;;;;42.05;26.27;;;-0.50;97.40;;;;;;4992509;28;20622;-72
2021/01/30 06:04:58;;;;;;;46.53;29.33;;;-1.40;97.20;;;;;;4987696;28;20296;-73
2021/01/30 06:07:34;;;;;;;52.05;30.70;;;-1.30;97.20;;;;;;4987202;28;20210;-73
2021/01/30 06:10:29;;;;;;;56.65;35.55;;;-1.30;97.20;;;;;;4987631;28;20221;-70
2021/01/30 06:13:10;;;;;;;47.33;28.92;;;-1.40;97.10;;;;;;4989650;28;20198;-72
2021/01/30 06:15:41;;;;;;;44.10;29.17;;;-1.50;96.60;;;;;;4981662;28;20265;-72
2021/01/30 06:18:19;;;;;;;46.38;30.00;;;0.20;97.30;;;;;;4995560;28;20213;-72
2021/01/30 06:21:20;;;;;;;47.17;30.70;;;-1.60;97.00;;;;;;4989869;28;20209;-72
2021/01/30 06:24:23;;;;;;;39.83;27.60;;;-1.60;97.20;;;;;;5001088;28;20268;-71
2021/01/30 06:26:51;;;;;;;37.92;25.48;;;-1.70;97.00;;;;;;5001197;28;20209;-71
2021/01/30 06:29:42;;;;;;;33.30;23.00;;;0.20;97.60;;;;;;5001251;28;20232;-73
2021/01/30 06:32:24;;;;;;;27.73;20.83;;;-1.70;97.00;;;;;;4983378;28;20227;-70
2021/01/30 06:35:15;;;;;;;27.65;19.92;;;-3.80;97.00;;;;;;4982014;28;20508;-71
2021/01/30 06:37:49;;;;;;;29.33;19.65;;;0.10;97.70;;;;;;4991641;28;20503;-71
2021/01/30 06:40:26;;;;;;;26.73;14.98;;;-1.90;97.20;;;;;;5000686;28;20209;-72
2021/01/30 06:43:02;;;;;;;32.38;17.67;;;-1.80;97.30;;;;;;4992836;28;20480;-72
2021/01/30 06:45:40;;;;;;;23.73;16.92;;;-1.80;97.20;;;;;;4994940;28;20245;-72
2021/01/30 06:48:29;;;;;;;24.88;15.70;;;-1.80;97.10;;;;;;4990750;28;20216;-73
2021/01/30 06:50:57;;;;;;;22.67;15.77;;;-1.70;96.90;;;;;;4996434;28;20509;-71
2021/01/30 06:53:32;;;;;;;25.70;16.10;;;0.20;97.30;;;;;;4991344;28;20427;-71
2021/01/30 06:56:35;;;;;;;22.05;15.00;;;-1.60;96.80;;;;;;4987228;28;20209;-71
2021/01/30 06:59:09;;;;;;;28.92;19.25;;;-0.20;97.00;;;;;;5017257;28;20375;-73
2021/01/30 07:01:44;;;;;;;31.48;16.73;;;-0.80;97.00;;;;;;5002455;28;20653;-72
2021/01/30 07:04:29;;;;;;;28.15;20.25;;;-1.60;96.60;;;;;;4993827;28;20210;-72
2021/01/30 07:07:27;;;;;;;26.33;18.00;;;-1.60;96.50;;;;;;4995764;28;20256;-72
2021/01/30 07:10:12;;;;;;;23.08;16.80;;;-1.50;96.50;;;;;;5000464;28;20318;-71
2021/01/30 07:12:51;;;;;;;23.60;16.77;;;-1.50;96.40;;;;;;4998778;28;20209;-71
2021/01/30 07:15:26;;;;;;;25.55;17.05;;;-1.50;96.30;;;;;;4999664;28;20244;-71
2021/01/30 07:18:06;;;;;;;27.95;18.75;;;-1.50;96.40;;;;;;4988537;28;20209;-71
2021/01/30 07:20:46;;;;;;;31.08;21.35;;;-1.50;96.30;;;;;;4980683;28;20504;-72
2021/01/30 07:23:28;;;;;;;28.23;19.73;;;-1.50;96.40;;;;;;4993171;28;20251;-73
2021/01/30 07:25:58;;;;;;;29.17;20.10;;;0.00;96.60;;;;;;4989889;28;20222;-72
2021/01/30 07:29:03;;;;;;;33.55;20.15;;;-1.50;96.10;;;;;;5000006;28;20689;-71
2021/01/30 07:31:41;;;;;;;29.65;21.35;;;-1.40;96.00;;;;;;4987746;28;20373;-71
2021/01/30 07:34:31;;;;;;;32.08;21.67;;;-1.40;96.10;;;;;;4982509;28;20228;-71
2021/01/30 07:37:06;;;;;;;31.90;22.13;;;-1.30;95.90;;;;;;4996011;28;20216;-72
2021/01/30 07:39:49;;;;;;;33.58;23.63;;;-1.30;95.70;;;;;;4991055;28;20390;-73
2021/01/30 07:42:19;;;;;;;39.58;24.67;;;-1.20;95.80;;;;;;4983715;28;20206;-71
2021/01/30 07:45:01;;;;;;;36.75;22.52;;;-1.10;95.60;;;;;;4999189;28;20221;-72
2021/01/30 07:47:42;;;;;;;37.78;24.58;;;-1.10;95.10;;;;;;4999360;28;20382;-70
2021/01/30 07:50:30;;;;;;;37.55;24.08;;;-1.20;95.10;;;;;;4999787;28;20197;-71
2021/01/30 07:53:07;;;;;;;35.95;23.27;;;-1.20;95.50;;;;;;4987500;28;20214;-71
2021/01/30 07:55:36;;;;;;;44.72;28.25;;;-1.30;95.20;;;;;;4984716;28;20241;-71
2021/01/30 07:58:22;;;;;;;43.65;27.48;;;-1.20;95.50;;;;;;4980683;28;20382;-71
2021/01/30 08:01:10;;;;;;;48.92;27.83;;;-1.20;95.60;;;;;;4985627;28;20248;-72
2021/01/30 08:04:28;;;;;;;49.00;29.13;;;-1.00;95.40;;;;;;4983281;28;20224;-71
2021/01/30 08:07:08;;;;;;;52.75;30.27;;;-1.00;95.10;;;;;;5004856;28;20213;-71
2021/01/30 08:09:41;;;;;;;46.13;30.27;;;-0.90;95.40;;;;;;4998157;28;20236;-71
2021/01/30 08:12:39;;;;;;;51.42;31.55;;;-0.80;95.20;;;;;;4990487;28;20202;-70
2021/01/30 08:15:10;;;;;;;51.15;32.35;;;-0.70;94.90;;;;;;4985864;28;20238;-71
2021/01/30 08:18:11;;;;;;;56.63;32.50;;;-0.70;94.80;;;;;;4999122;28;20209;-72
2021/01/30 08:20:52;;;;;;;55.33;34.60;;;-0.70;94.70;;;;;;4999179;28;20206;-71
2021/01/30 08:23:33;;;;;;;55.38;35.45;;;-0.60;94.50;;;;;;4997824;28;20213;-71
2021/01/30 08:26:06;;;;;;;64.88;38.40;;;-0.50;94.20;;;;;;4998177;28;20405;-71
2021/01/30 08:28:40;;;;;;;66.20;43.10;;;-0.40;94.40;;;;;;4988894;28;20381;-70
2021/01/30 08:31:06;;;;;;;82.57;48.28;;;-0.40;94.00;;;;;;4982157;28;20234;-70
2021/01/30 08:34:17;;;;;;;83.15;46.13;;;-0.50;94.10;;;;;;4983196;28;20478;-70
2021/01/30 08:36:47;;;;;;;82.97;45.35;;;-0.70;94.30;;;;;;4959725;28;20286;-72
2021/01/30 08:39:34;;;;;;;85.93;48.22;;;-0.20;94.80;;;;;;4961306;28;20214;-70
2021/01/30 08:42:16;;;;;;;80.20;45.53;;;-0.20;94.60;;;;;;4976004;28;20216;-71
2021/01/30 08:44:56;;;;;;;78.60;47.60;;;-0.50;94.30;;;;;;4981162;28;20213;-70
2021/01/30 08:47:28;;;;;;;88.22;47.75;;;-0.50;94.00;;;;;;4982767;28;20212;-70
2021/01/30 08:50:00;;;;;;;74.40;45.50;;;-0.40;94.00;;;;;;4980354;28;20209;-71
2021/01/30 08:52:55;;;;;;;83.57;46.90;;;-0.50;93.70;;;;;;4981973;28;20320;-72
2021/01/30 08:55:30;;;;;;;76.40;41.53;;;-0.50;93.70;;;;;;4978748;28;20249;-71
2021/01/30 08:57:57;;;;;;;64.30;40.33;;;0.30;93.70;;;;;;4981916;28;20352;-71
2021/01/30 09:00:26;;;;;;;69.18;42.65;;;0.50;93.70;;;;;;4982091;28;20214;-71
2021/01/30 09:02:54;;;;;;;69.88;40.58;;;-0.60;93.60;;;;;;4986103;28;20286;-71
2021/01/30 09:05:20;;;;;;;73.05;40.92;;;-0.50;93.30;;;;;;4982072;28;20545;-71
2021/01/30 09:07:52;;;;;;;66.25;39.10;;;-0.40;93.40;;;;;;4982026;28;20197;-71
2021/01/30 09:10:22;;;;;;;67.80;39.72;;;-0.40;93.20;;;;;;4979853;28;20559;-71
2021/01/30 09:12:54;;;;;;;76.20;42.50;;;-0.30;93.20;;;;;;4990449;28;20429;-71
2021/01/30 09:15:40;;;;;;;61.20;37.13;;;-0.30;92.90;;;;;;4990686;28;20265;-72
2021/01/30 09:18:22;;;;;;;74.88;43.25;;;-0.40;93.20;;;;;;4984610;28;20210;-72
2021/01/30 09:21:13;;;;;;;64.97;39.70;;;-0.40;93.30;;;;;;4979377;28;20209;-70
2021/01/30 09:23:48;;;;;;;71.90;40.30;;;-0.30;93.10;;;;;;4979014;28;20237;-72
2021/01/30 09:26:30;;;;;;;70.38;41.05;;;-0.30;92.90;;;;;;4978915;28;20458;-72
2021/01/30 09:29:03;;;;;;;59.60;38.25;;;-0.30;92.90;;;;;;4985029;28;20210;-72
2021/01/30 09:31:30;;;;;;;64.15;38.40;;;0.70;93.20;;;;;;4984207;28;20206;-71
2021/01/30 09:34:06;;;;;;;65.70;37.78;;;0.90;93.50;;;;;;4979870;28;20210;-72
2021/01/30 09:36:37;;;;;;;58.17;34.75;;;-0.10;93.00;;;;;;4981620;28;20220;-71
2021/01/30 09:39:20;;;;;;;54.45;34.92;;;0.10;92.70;;;;;;4982720;28;20233;-71
2021/01/30 09:41:47;;;;;;;56.28;34.05;;;0.10;92.60;;;;;;4978265;28;20225;-71
2021/01/30 09:44:23;;;;;;;57.92;35.03;;;0.90;92.40;;;;;;4991496;28;20314;-71
2021/01/30 09:46:53;;;;;;;56.03;32.05;;;0.20;92.10;;;;;;4980662;28;20256;-72
2021/01/30 09:49:27;;;;;;;56.22;34.63;;;0.20;91.60;;;;;;4982708;28;20205;-71
2021/01/30 09:51:55;;;;;;;52.42;31.17;;;0.00;91.90;;;;;;4981939;28;20209;-71
2021/01/30 09:54:25;;;;;;;49.67;31.73;;;0.00;91.90;;;;;;4987338;28;20213;-72
2021/01/30 09:56:57;;;;;;;54.53;35.03;;;0.10;92.20;;;;;;4994022;28;20221;-73
2021/01/30 09:59:28;;;;;;;49.28;30.63;;;0.20;92.00;;;;;;4994292;28;20214;-73
2021/01/30 10:02:09;;;;;;;57.22;32.85;;;0.40;91.80;;;;;;4999998;28;20209;-74
2021/01/30 10:04:38;;;;;;;55.13;34.05;;;0.40;91.50;;;;;;4985190;28;20272;-75
2021/01/30 10:07:09;;;;;;;42.47;28.55;;;0.40;91.40;;;;;;4990675;28;20210;-76
2021/01/30 10:09:43;;;;;;;49.30;29.38;;;0.40;91.60;;;;;;4987480;28;20292;-77
2021/01/30 10:12:12;;;;;;;41.78;27.75;;;0.30;91.20;;;;;;4985804;28;20432;-77
2021/01/30 10:14:42;;;;;;;49.63;28.73;;;0.60;91.70;;;;;;5000016;28;20292;-76
2021/01/30 10:17:22;;;;;;;42.72;26.55;;;0.50;91.90;;;;;;4987905;28;20227;-76
2021/01/30 10:19:57;;;;;;;45.25;30.98;;;0.50;91.60;;;;;;4999781;28;20512;-76
2021/01/30 10:22:34;;;;;;;42.47;26.30;;;1.60;91.80;;;;;;5000134;28;20208;-77
2021/01/30 10:25:04;;;;;;;40.80;27.13;;;0.70;91.00;;;;;;4989064;28;20205;-78
2021/01/30 10:27:31;;;;;;;43.40;27.08;;;0.70;91.20;;;;;;4984620;28;20206;-80
2021/01/30 10:29:59;;;;;;;41.00;25.30;;;0.00;91.10;;;;;;5020969;28;20209;-78
2021/01/30 10:32:41;;;;;;;41.30;28.98;;;1.10;91.40;;;;;;5026438;28;20241;-79
2021/01/30 10:35:20;;;;;;;38.92;24.95;;;0.70;91.30;;;;;;4989016;28;20214;-80
2021/01/30 10:37:51;;;;;;;45.70;26.30;;;0.80;91.30;;;;;;4989463;28;20288;-79
2021/01/30 10:40:36;;;;;;;49.58;30.77;;;0.90;91.40;;;;;;4998251;28;20221;-78
2021/01/30 10:43:12;;;;;;;44.85;27.85;;;0.80;91.30;;;;;;4987103;28;20206;-77
2021/01/30 10:45:43;;;;;;;41.00;25.08;;;0.80;91.40;;;;;;4999424;28;20221;-75
2021/01/30 10:48:14;;;;;;;38.95;24.23;;;0.70;91.30;;;;;;4987685;28;20212;-75
2021/01/30 10:50:42;;;;;;;43.08;28.55;;;0.70;91.10;;;;;;4993781;28;20210;-76
2021/01/30 10:53:34;;;;;;;48.53;26.48;;;0.70;91.10;;;;;;4990488;28;20214;-74
2021/01/30 10:56:19;;;;;;;39.05;26.52;;;0.80;91.50;;;;;;4984209;28;20211;-73
2021/01/30 10:58:48;;;;;;;45.58;28.10;;;0.70;91.20;;;;;;4982662;28;20212;-72
2021/01/30 11:01:19;;;;;;;48.65;28.42;;;0.60;91.40;;;;;;4983225;28;20212;-75
2021/01/30 11:03:50;;;;;;;44.75;30.05;;;0.50;91.50;;;;;;4981551;28;20210;-72
2021/01/30 11:06:36;;;;;;;43.08;25.83;;;1.10;91.80;;;;;;4984752;28;20317;-72
2021/01/30 11:09:23;;;;;;;42.22;28.95;;;0.60;91.40;;;;;;4995413;28;20289;-72
2021/01/30 11:11:52;;;;;;;42.38;27.73;;;0.60;91.50;;;;;;4987801;28;20508;-73
2021/01/30 11:14:22;;;;;;;45.67;27.83;;;2.10;92.30;;;;;;4981344;28;20206;-74
2021/01/30 11:16:49;;;;;;;48.53;29.60;;;0.70;91.60;;;;;;4994405;28;20206;-74
2021/01/30 11:19:23;;;;;;;46.33;29.38;;;0.90;91.60;;;;;;5001875;28;20237;-75
2021/01/30 11:22:02;;;;;;;48.10;28.90;;;0.70;91.60;;;;;;5006746;28;20209;-75
2021/01/30 11:24:35;;;;;;;45.55;29.67;;;0.70;91.80;;;;;;5006969;28;20380;-74
2021/01/30 11:27:03;;;;;;;43.40;29.42;;;0.70;91.60;;;;;;5013500;28;20233;-75
2021/01/30 11:29:56;;;;;;;41.40;29.25;;;0.80;91.60;;;;;;5040298;28;20206;-76
2021/01/30 11:32:24;;;;;;;49.25;28.63;;;0.80;91.60;;;;;;5009386;28;20521;-76
2021/01/30 11:35:00;;;;;;;43.83;28.27;;;0.80;91.30;;;;;;5009935;28;20205;-76
2021/01/30 11:37:27;;;;;;;42.08;28.38;;;0.70;91.30;;;;;;5007604;28;20214;-76
2021/01/30 11:39:54;;;;;;;39.40;24.77;;;0.70;91.90;;;;;;5006219;28;20220;-77
2021/01/30 11:42:20;;;;;;;42.17;26.38;;;0.60;91.50;;;;;;5017149;28;20201;-77
2021/01/30 11:44:48;;;;;;;37.92;25.45;;;0.70;91.90;;;;;;5004491;28;20520;-77
2021/01/30 11:47:14;;;;;;;46.60;27.67;;;1.80;92.00;;;;;;5001447;28;20224;-79
2021/01/30 11:49:41;;;;;;;38.75;22.67;;;0.80;91.60;;;;;;5012492;28;20205;-81
2021/01/30 11:52:16;;;;;;;35.28;24.75;;;0.70;90.90;;;;;;5012443;28;20201;-79
2021/01/30 11:54:43;;;;;;;36.08;24.23;;;0.70;91.60;;;;;;5006236;28;20489;-79
2021/01/30 11:57:10;;;;;;;35.80;22.92;;;0.80;91.70;;;;;;5013858;28;20232;-78
2021/01/30 11:59:36;;;;;;;31.45;18.20;;;0.90;91.40;;;;;;5011032;28;20205;-77
2021/01/30 12:02:03;;;;;;;29.73;19.65;;;1.20;91.10;;;;;;5005680;28;20244;-77
2021/01/30 12:04:30;;;;;;;34.67;17.73;;;0.90;91.40;;;;;;5027862;28;20214;-76
2021/01/30 12:06:56;;;;;;;30.35;19.60;;;0.90;91.00;;;;;;5008910;28;20237;-75
2021/01/30 12:09:23;;;;;;;28.25;17.83;;;0.90;90.90;;;;;;5002190;28;20456;-75
2021/01/30 12:11:49;;;;;;;26.67;18.88;;;1.10;91.10;;;;;;5008227;28;20205;-75
2021/01/30 12:14:16;;;;;;;25.65;18.10;;;1.10;90.80;;;;;;5019312;28;20491;-75
2021/01/30 12:16:50;;;;;;;24.90;17.58;;;0.90;90.50;;;;;;5007719;28;20210;-75
2021/01/30 12:19:16;;;;;;;27.42;18.23;;;1.00;90.90;;;;;;5018696;28;20205;-75
2021/01/30 12:21:43;;;;;;;27.30;16.13;;;0.90;91.00;;;;;;5004938;28;20223;-74
2021/01/30 12:24:09;;;;;;;30.42;20.38;;;0.90;90.90;;;;;;5018969;28;20399;-75
2021/01/30 12:26:36;;;;;;;22.80;16.20;;;0.90;91.00;;;;;;5018334;28;20236;-73
2021/01/30 12:29:02;;;;;;;19.90;15.02;;;0.90;90.80;;;;;;5014461;28;20378;-73
2021/01/30 12:31:29;;;;;;;23.55;15.02;;;0.90;91.00;;;;;;5017926;28;20234;-73
2021/01/30 12:33:57;;;;;;;22.17;15.10;;;0.80;90.90;;;;;;5013431;28;20204;-73
2021/01/30 12:36:23;;;;;;;16.42;12.45;;;0.80;90.90;;;;;;5012228;28;20516;-72
2021/01/30 12:38:51;;;;;;;18.52;14.35;;;1.70;90.90;;;;;;5008167;28;20216;-73
2021/01/30 12:41:18;;;;;;;21.95;12.15;;;0.90;90.40;;;;;;5017677;28;20205;-72
2021/01/30 12:43:44;;;;;;;17.33;11.98;;;0.90;90.50;;;;;;5015270;28;20209;-72
2021/01/30 12:46:11;;;;;;;21.13;13.52;;;1.30;90.60;;;;;;5016292;28;20228;-72
2021/01/30 12:48:38;;;;;;;23.65;15.30;;;1.20;90.80;;;;;;5019102;28;20209;-71
2021/01/30 12:51:05;;;;;;;21.70;13.18;;;0.80;90.70;;;;;;5016448;28;20204;-73
2021/01/30 12:53:31;;;;;;;19.25;13.90;;;0.80;91.10;;;;;;5003241;28;20441;-72
2021/01/30 12:55:58;;;;;;;23.13;15.45;;;1.00;91.00;;;;;;5000041;28;20245;-71
2021/01/30 12:58:27;;;;;;;20.40;14.45;;;0.10;90.70;;;;;;5010085;28;20472;-73
2021/01/30 13:00:57;;;;;;;19.42;13.90;;;1.50;90.80;;;;;;5016924;28;20499;-72
2021/01/30 13:03:25;;;;;;;27.17;15.70;;;0.90;90.90;;;;;;5016807;28;20213;-72
2021/01/30 13:05:52;;;;;;;22.75;14.00;;;0.90;91.00;;;;;;5011307;28;20287;-72
2021/01/30 13:08:22;;;;;;;26.55;13.75;;;0.90;90.80;;;;;;5018367;28;20201;-72